createdAt,value
2022-08-23T00:00:16.783Z,1.13
2022-08-23T00:02:49.515Z,1.50
2022-08-23T00:05:21.115Z,1.20
2022-08-23T00:07:51.938Z,1.20
2022-08-23T00:10:23.417Z,1.20
2022-08-23T00:12:55.784Z,1.20
2022-08-23T00:15:26.668Z,1.60
2022-08-23T00:17:57.551Z,0.93
2022-08-23T00:20:28.744Z,1.20
2022-08-23T00:22:59.475Z,1.40
2022-08-23T00:25:30.244Z,1.23
2022-08-23T00:28:02.936Z,0.80
2022-08-23T00:30:33.934Z,1.20
2022-08-23T00:33:05.388Z,1.03
2022-08-23T00:35:36.191Z,1.40
2022-08-23T00:38:33.062Z,1.20
2022-08-23T00:40:57.715Z,1.20
2022-08-23T00:43:51.221Z,1.00
2022-08-23T00:46:54.802Z,0.97
2022-08-23T00:49:27.137Z,1.30
2022-08-23T00:52:03.970Z,1.27
2022-08-23T00:54:35.687Z,0.83
2022-08-23T00:57:09.122Z,1.20
2022-08-23T00:59:41.661Z,0.97
2022-08-23T01:02:13.527Z,0.93
2022-08-23T01:04:48.121Z,1.40
2022-08-23T01:07:27.425Z,1.43
2022-08-23T01:10:03.356Z,1.00
2022-08-23T01:12:40.248Z,1.30
2022-08-23T01:15:22.079Z,0.97
2022-08-23T01:17:57.561Z,1.23
2022-08-23T01:20:29.268Z,1.00
2022-08-23T01:23:04.945Z,1.43
2022-08-23T01:25:37.725Z,1.30
2022-08-23T01:28:08.555Z,1.40
2022-08-23T01:30:39.817Z,1.47
2022-08-23T01:33:11.229Z,1.03
2022-08-23T01:35:45.086Z,0.93
2022-08-23T01:38:16.242Z,1.20
2022-08-23T01:40:48.653Z,1.70
2022-08-23T01:43:20.812Z,1.23
2022-08-23T01:45:53.137Z,1.17
2022-08-23T01:48:25.187Z,0.90
2022-08-23T01:50:55.942Z,0.67
2022-08-23T01:53:26.709Z,0.90
2022-08-23T01:55:59.142Z,0.97
2022-08-23T01:58:31.040Z,0.70
2022-08-23T02:01:02.817Z,0.90
2022-08-23T02:03:33.700Z,0.73
2022-08-23T02:06:04.761Z,0.77
2022-08-23T02:09:17.365Z,0.60
2022-08-23T02:11:51.131Z,0.83
2022-08-23T02:14:23.741Z,0.90
2022-08-23T02:17:03.378Z,0.80
2022-08-23T02:19:36.175Z,0.80
2022-08-23T02:22:08.778Z,0.50
2022-08-23T02:24:43.640Z,1.03
2022-08-23T02:27:17.664Z,0.70
2022-08-23T02:29:50.496Z,0.70
2022-08-23T02:32:26.960Z,0.60
2022-08-23T02:35:04.575Z,0.80
2022-08-23T02:37:37.240Z,1.80
2022-08-23T02:40:09.061Z,1.10
2022-08-23T02:42:41.497Z,0.60
2022-08-23T02:45:13.917Z,1.00
2022-08-23T02:47:44.679Z,0.90
2022-08-23T02:50:15.674Z,0.70
2022-08-23T02:52:47.346Z,0.50
2022-08-23T02:55:18.693Z,0.73
2022-08-23T02:57:51.349Z,0.93
2022-08-23T03:00:24.748Z,0.50
2022-08-23T03:02:56.030Z,0.80
2022-08-23T03:05:27.160Z,0.70
2022-08-23T03:07:58.027Z,0.90
2022-08-23T03:10:28.929Z,0.73
2022-08-23T03:13:01.403Z,0.83
2022-08-23T03:15:32.330Z,0.80
2022-08-23T03:18:03.040Z,1.27
2022-08-23T03:20:33.956Z,0.70
2022-08-23T03:23:04.883Z,1.00
2022-08-23T03:25:35.612Z,0.93
2022-08-23T03:28:08.938Z,0.70
2022-08-23T03:30:39.699Z,1.00
2022-08-23T03:33:10.449Z,0.70
2022-08-23T03:35:41.198Z,0.97
2022-08-23T03:38:12.359Z,1.00
2022-08-23T03:40:43.097Z,0.87
2022-08-23T03:43:15.662Z,1.10
2022-08-23T03:45:46.416Z,1.10
2022-08-23T03:48:17.500Z,1.00
2022-08-23T03:50:48.401Z,1.00
2022-08-23T03:53:19.177Z,0.97
2022-08-23T03:55:50.139Z,0.90
2022-08-23T03:58:23.024Z,1.00
2022-08-23T04:00:53.754Z,1.10
2022-08-23T04:03:24.458Z,1.20
2022-08-23T04:05:55.190Z,1.00
2022-08-23T04:08:28.068Z,0.90
2022-08-23T04:11:05.226Z,0.97
2022-08-23T04:13:37.693Z,1.10
2022-08-23T04:16:09.955Z,1.00
2022-08-23T04:18:40.728Z,0.80
2022-08-23T04:21:15.029Z,0.87
2022-08-23T04:23:45.784Z,1.17
2022-08-23T04:26:16.606Z,0.80
2022-08-23T04:28:48.952Z,1.40
2022-08-23T04:31:21.015Z,1.10
2022-08-23T04:33:53.185Z,1.17
2022-08-23T04:36:24.398Z,1.03
2022-08-23T04:38:56.200Z,1.10
2022-08-23T04:41:43.524Z,1.03
2022-08-23T04:44:16.342Z,1.10
2022-08-23T04:46:49.493Z,1.10
2022-08-23T04:49:20.882Z,0.97
2022-08-23T04:51:55.316Z,1.10
2022-08-23T04:54:26.280Z,1.00
2022-08-23T04:56:57.311Z,1.03
2022-08-23T04:59:29.728Z,1.20
2022-08-23T05:02:00.499Z,1.03
2022-08-23T05:04:31.403Z,1.30
2022-08-23T05:07:02.107Z,1.20
2022-08-23T05:09:32.830Z,0.90
2022-08-23T05:12:03.576Z,0.93
2022-08-23T05:14:35.991Z,1.07
2022-08-23T05:17:06.850Z,1.07
2022-08-23T05:19:39.405Z,1.17
2022-08-23T05:22:16.183Z,1.20
2022-08-23T05:24:46.924Z,0.93
2022-08-23T05:27:17.679Z,1.33
2022-08-23T05:29:50.724Z,1.07
2022-08-23T05:32:21.511Z,0.93
2022-08-23T05:34:52.405Z,1.30
2022-08-23T05:37:23.137Z,0.93
2022-08-23T05:39:54.887Z,1.27
2022-08-23T05:42:26.350Z,1.03
2022-08-23T05:44:58.966Z,1.40
2022-08-23T05:47:31.889Z,1.00
2022-08-23T05:50:04.742Z,1.30
2022-08-23T05:52:35.461Z,1.33
2022-08-23T05:55:06.757Z,0.80
2022-08-23T05:57:38.450Z,1.23
2022-08-23T06:00:14.383Z,1.20
2022-08-23T06:02:45.551Z,0.90
2022-08-23T06:05:16.320Z,0.90
2022-08-23T06:07:47.047Z,0.90
2022-08-23T06:10:21.594Z,0.90
2022-08-23T06:12:52.316Z,1.27
2022-08-23T06:15:24.649Z,0.97
2022-08-23T06:17:55.431Z,0.90
2022-08-23T06:20:26.210Z,1.00
2022-08-23T06:22:57.102Z,1.07
2022-08-23T06:25:27.808Z,1.27
2022-08-23T06:27:58.599Z,1.07
2022-08-23T06:30:32.180Z,1.20
2022-08-23T06:33:02.899Z,1.03
2022-08-23T06:35:38.870Z,1.20
2022-08-23T06:38:10.495Z,0.87
2022-08-23T06:40:41.225Z,1.40
2022-08-23T06:43:12.114Z,0.80
2022-08-23T06:45:44.803Z,0.80
2022-08-23T06:48:25.800Z,0.83
2022-08-23T06:50:56.536Z,1.17
2022-08-23T06:53:27.308Z,1.03
2022-08-23T06:55:59.996Z,0.90
2022-08-23T06:58:30.740Z,0.77
2022-08-23T07:01:35.030Z,1.00
2022-08-23T07:04:05.295Z,1.00
2022-08-23T07:06:36.685Z,1.10
2022-08-23T07:09:07.955Z,1.20
2022-08-23T07:11:40.216Z,0.97
2022-08-23T07:14:13.468Z,0.97
2022-08-23T07:16:48.869Z,0.70
2022-08-23T07:19:20.715Z,0.63
2022-08-23T07:21:52.017Z,0.77
2022-08-23T07:24:23.429Z,0.90
2022-08-23T07:26:54.564Z,0.97
2022-08-23T07:29:26.164Z,0.90
2022-08-23T07:31:59.610Z,1.10
2022-08-23T07:34:31.183Z,0.73
2022-08-23T07:37:02.406Z,1.13
2022-08-23T07:39:33.554Z,0.87
2022-08-23T07:42:22.950Z,1.00
2022-08-23T07:44:55.462Z,0.80
2022-08-23T07:47:31.259Z,0.93
2022-08-23T07:50:02.051Z,0.93
2022-08-23T07:52:32.771Z,0.70
2022-08-23T07:55:03.508Z,0.90
2022-08-23T07:57:34.226Z,0.90
2022-08-23T08:00:05.121Z,1.27
2022-08-23T08:02:37.491Z,0.60
2022-08-23T08:05:08.965Z,0.90
2022-08-23T08:07:39.906Z,0.77
2022-08-23T08:10:11.457Z,0.90
2022-08-23T08:12:42.186Z,0.80
2022-08-23T08:15:14.131Z,1.10
2022-08-23T08:17:49.443Z,0.70
2022-08-23T08:20:20.602Z,0.80
2022-08-23T08:22:56.380Z,0.80
2022-08-23T08:25:33.634Z,0.90
2022-08-23T08:28:04.717Z,0.90
2022-08-23T08:30:35.449Z,0.87
2022-08-23T08:33:08.282Z,1.17
2022-08-23T08:35:39.416Z,0.90
2022-08-23T08:38:10.351Z,1.17
2022-08-23T08:40:42.956Z,0.73
2022-08-23T08:43:33.085Z,1.07
2022-08-23T08:46:08.854Z,0.87
2022-08-23T08:48:45.599Z,1.00
2022-08-23T08:51:35.303Z,0.83
2022-08-23T08:54:10.793Z,1.10
2022-08-23T08:56:42.664Z,1.20
2022-08-23T08:59:17.571Z,0.80
2022-08-23T09:01:48.702Z,0.80
2022-08-23T09:04:23.024Z,0.70
2022-08-23T09:07:04.830Z,1.30
2022-08-23T09:09:54.773Z,0.87
2022-08-23T09:12:35.590Z,0.90
2022-08-23T09:15:20.710Z,0.87
2022-08-23T09:17:56.402Z,1.20
2022-08-23T09:20:33.315Z,1.00
2022-08-23T09:23:11.188Z,0.87
2022-08-23T09:25:42.247Z,1.10
2022-08-23T09:28:13.016Z,0.80
2022-08-23T09:30:53.379Z,0.77
2022-08-23T09:33:26.294Z,1.10
2022-08-23T09:36:25.112Z,1.20
2022-08-23T09:38:59.434Z,1.40
2022-08-23T09:41:34.208Z,1.03
2022-08-23T09:44:05.149Z,1.00
2022-08-23T09:46:39.825Z,1.10
2022-08-23T09:49:27.973Z,0.97
2022-08-23T09:52:04.215Z,0.90
2022-08-23T09:54:39.399Z,1.37
2022-08-23T09:57:14.560Z,1.07
2022-08-23T09:59:47.620Z,1.07
2022-08-23T10:02:27.222Z,1.10
2022-08-23T10:05:04.234Z,1.30
2022-08-23T10:07:42.679Z,1.60
2022-08-23T10:10:20.603Z,1.30
2022-08-23T10:12:51.366Z,1.00
2022-08-23T10:15:24.119Z,1.10
2022-08-23T10:18:03.879Z,1.40
2022-08-23T10:20:44.562Z,1.43
2022-08-23T10:23:30.607Z,1.37
2022-08-23T10:26:03.687Z,1.73
2022-08-23T10:28:59.048Z,1.50
2022-08-23T10:31:39.084Z,1.30
2022-08-23T10:34:35.909Z,1.10
2022-08-23T10:37:29.480Z,1.40
2022-08-23T10:40:05.815Z,1.50
2022-08-23T10:42:43.788Z,1.30
2022-08-23T10:45:27.285Z,1.10
2022-08-23T10:48:08.764Z,1.40
2022-08-23T10:50:55.566Z,1.43
2022-08-23T10:53:33.956Z,1.77
2022-08-23T10:56:07.088Z,1.23
2022-08-23T10:58:47.361Z,1.23
2022-08-23T11:01:21.441Z,1.40
2022-08-23T11:04:04.539Z,1.30
2022-08-23T11:06:53.701Z,1.10
2022-08-23T11:09:54.859Z,1.40
2022-08-23T11:12:36.564Z,1.40
2022-08-23T11:15:22.222Z,1.40
2022-08-23T11:18:04.037Z,1.80
2022-08-23T11:21:03.680Z,1.93
2022-08-23T11:23:56.747Z,1.40
2022-08-23T11:27:08.808Z,1.50
2022-08-23T11:29:47.045Z,1.00
2022-08-23T11:32:38.831Z,1.50
2022-08-23T11:35:30.347Z,1.70
2022-08-23T11:38:05.342Z,1.60
2022-08-23T11:40:59.297Z,1.50
2022-08-23T11:43:36.873Z,1.20
2022-08-23T11:46:32.525Z,1.40
2022-08-23T11:49:26.640Z,1.40
2022-08-23T11:52:06.293Z,1.50
2022-08-23T11:55:06.033Z,1.13
2022-08-23T11:57:57.064Z,1.40
2022-08-23T12:00:34.429Z,1.63
2022-08-23T12:03:09.635Z,1.30
2022-08-23T12:06:00.547Z,1.50
2022-08-23T12:08:51.473Z,1.80
2022-08-23T12:11:23.561Z,1.30
2022-08-23T12:13:58.705Z,1.30
2022-08-23T12:16:44.250Z,1.10
2022-08-23T12:19:39.454Z,1.40
2022-08-23T12:22:15.065Z,1.37
2022-08-23T12:24:52.059Z,1.30
2022-08-23T12:27:32.465Z,1.57
2022-08-23T12:30:09.056Z,1.53
2022-08-23T12:32:45.754Z,1.63
2022-08-23T12:35:37.045Z,2.10
2022-08-23T12:38:13.375Z,1.70
2022-08-23T12:40:46.100Z,1.60
2022-08-23T12:43:23.191Z,1.70
2022-08-23T12:45:56.515Z,2.00
2022-08-23T12:48:30.473Z,1.70
2022-08-23T12:51:05.607Z,1.20
2022-08-23T12:53:44.061Z,1.40
2022-08-23T12:56:31.517Z,1.80
2022-08-23T12:59:06.509Z,2.00
2022-08-23T13:01:39.846Z,2.00
2022-08-23T13:04:14.356Z,1.73
2022-08-23T13:06:50.006Z,1.83
2022-08-23T13:09:25.359Z,1.37
2022-08-23T13:11:57.470Z,1.60
2022-08-23T13:14:36.497Z,1.43
2022-08-23T13:17:22.159Z,1.70
2022-08-23T13:19:55.455Z,1.80
2022-08-23T13:22:29.922Z,1.67
2022-08-23T13:25:28.231Z,2.40
2022-08-23T13:28:01.767Z,2.23
2022-08-23T13:30:33.920Z,2.07
2022-08-23T13:33:26.885Z,1.60
2022-08-23T13:36:13.319Z,2.00
2022-08-23T13:38:46.966Z,1.20
2022-08-23T13:41:38.728Z,2.00
2022-08-23T13:44:15.663Z,1.57
2022-08-23T13:46:51.013Z,1.90
2022-08-23T13:49:24.872Z,1.67
2022-08-23T13:52:41.670Z,1.90
2022-08-23T13:55:03.704Z,2.50
2022-08-23T13:57:37.932Z,1.53
2022-08-23T14:00:12.112Z,1.90
2022-08-23T14:02:45.270Z,1.80
2022-08-23T14:05:16.064Z,2.00
2022-08-23T14:07:47.190Z,1.60
2022-08-23T14:10:19.732Z,2.00
2022-08-23T14:12:51.989Z,1.80
2022-08-23T14:15:54.326Z,1.87
2022-08-23T14:18:14.282Z,2.00
2022-08-23T14:20:46.286Z,2.47
2022-08-23T14:23:19.723Z,1.83
2022-08-23T14:25:53.845Z,1.80
2022-08-23T14:28:26.936Z,2.27
2022-08-23T14:31:00.569Z,2.47
2022-08-23T14:33:31.324Z,1.50
2022-08-23T14:36:02.057Z,2.43
2022-08-23T14:38:32.823Z,1.80
2022-08-23T14:41:07.936Z,1.77
2022-08-23T14:43:40.324Z,3.50
2022-08-23T14:46:11.136Z,2.13
2022-08-23T14:48:42.111Z,2.20
2022-08-23T14:51:25.878Z,2.00
2022-08-23T14:53:57.693Z,1.50
2022-08-23T14:56:30.089Z,1.57
2022-08-23T14:59:00.826Z,1.87
2022-08-23T15:01:31.713Z,2.17
2022-08-23T15:04:04.507Z,1.60
2022-08-23T15:06:35.255Z,1.43
2022-08-23T15:09:06.120Z,1.63
2022-08-23T15:14:29.221Z,1.57
2022-08-23T15:17:00.285Z,1.60
2022-08-23T15:19:31.205Z,1.30
2022-08-23T15:22:06.467Z,1.10
2022-08-23T15:24:49.724Z,1.40
2022-08-23T15:27:22.503Z,1.50
2022-08-23T15:29:53.308Z,1.57
2022-08-23T15:32:24.084Z,1.10
2022-08-23T15:34:54.939Z,1.17
2022-08-23T15:37:25.825Z,1.30
2022-08-23T15:39:56.604Z,1.07
2022-08-23T15:42:29.463Z,1.20
2022-08-23T15:45:02.377Z,1.37
2022-08-23T15:47:36.412Z,1.17
2022-08-23T15:50:08.529Z,1.03
2022-08-23T15:52:39.292Z,0.87
2022-08-23T15:55:10.613Z,0.80
2022-08-23T15:57:47.763Z,1.00
2022-08-23T16:00:20.027Z,1.10
2022-08-23T16:03:18.827Z,1.10
2022-08-23T16:05:42.155Z,1.00
2022-08-23T16:08:20.872Z,1.20
2022-08-23T16:10:51.641Z,1.10
2022-08-23T16:13:24.580Z,1.20
2022-08-23T16:15:55.753Z,0.90
2022-08-23T16:18:26.663Z,1.10
2022-08-23T16:20:57.383Z,0.97
2022-08-23T16:23:28.163Z,0.97
2022-08-23T16:26:01.175Z,1.20
2022-08-23T16:28:33.901Z,1.20
2022-08-23T16:31:04.699Z,1.00
2022-08-23T16:33:35.462Z,1.30
2022-08-23T16:36:07.014Z,1.10
2022-08-23T16:38:38.516Z,0.93
2022-08-23T16:41:09.704Z,1.10
2022-08-23T16:43:42.128Z,0.80
2022-08-23T16:46:13.247Z,1.03
2022-08-23T16:48:44.711Z,1.07
2022-08-23T16:51:16.008Z,1.00
2022-08-23T16:54:01.787Z,1.10
2022-08-23T16:56:34.834Z,1.00
2022-08-23T16:59:09.138Z,1.00
2022-08-23T17:01:48.668Z,1.00
2022-08-23T17:04:20.320Z,0.80
2022-08-23T17:06:51.228Z,0.90
2022-08-23T17:09:22.516Z,1.20
2022-08-23T17:11:54.475Z,0.90
2022-08-23T17:14:26.957Z,1.10
2022-08-23T17:16:57.712Z,1.10
2022-08-23T17:19:28.518Z,1.20
2022-08-23T17:21:59.225Z,1.03
2022-08-23T17:24:29.998Z,0.87
2022-08-23T17:27:00.880Z,1.50
2022-08-23T17:29:37.228Z,1.00
2022-08-23T17:32:09.099Z,1.10
2022-08-23T17:34:40.477Z,0.80
2022-08-23T17:37:19.128Z,1.00
2022-08-23T17:39:50.582Z,0.90
2022-08-23T17:42:23.999Z,1.03
2022-08-23T17:44:56.647Z,0.83
2022-08-23T17:47:27.723Z,0.87
2022-08-23T17:49:58.469Z,1.03
2022-08-23T17:52:29.611Z,0.87
2022-08-23T17:55:00.697Z,0.80
2022-08-23T17:57:33.079Z,1.27
2022-08-23T18:00:05.895Z,0.87
2022-08-23T18:02:36.800Z,0.80
2022-08-23T18:05:08.092Z,0.67
2022-08-23T18:07:38.891Z,0.83
2022-08-23T18:10:13.179Z,0.73
2022-08-23T18:12:44.079Z,0.80
2022-08-23T18:15:16.757Z,0.80
2022-08-23T18:17:47.525Z,0.80
2022-08-23T18:20:18.994Z,0.83
2022-08-23T18:22:52.002Z,0.90
2022-08-23T18:25:22.827Z,0.90
2022-08-23T18:28:07.558Z,0.70
2022-08-23T18:30:47.128Z,0.90
2022-08-23T18:33:18.990Z,1.00
2022-08-23T18:35:52.001Z,1.10
2022-08-23T18:38:22.842Z,0.93
2022-08-23T18:40:53.547Z,0.80
2022-08-23T18:43:26.242Z,0.93
2022-08-23T18:46:05.576Z,1.20
2022-08-23T18:48:37.230Z,1.13
2022-08-23T18:51:13.976Z,1.10
2022-08-23T18:53:49.443Z,1.10
2022-08-23T18:56:20.207Z,0.90
2022-08-23T18:58:51.334Z,0.80
2022-08-23T19:01:31.239Z,1.07
2022-08-23T19:04:04.469Z,1.00
2022-08-23T19:06:37.725Z,0.60
2022-08-23T19:09:11.399Z,0.87
2022-08-23T19:11:44.104Z,0.90
2022-08-23T19:14:15.054Z,0.90
2022-08-23T19:16:48.773Z,1.00
2022-08-23T19:19:20.763Z,1.10
2022-08-23T19:21:51.604Z,0.80
2022-08-23T19:24:22.359Z,1.00
2022-08-23T19:26:53.446Z,1.00
2022-08-23T19:29:24.581Z,1.30
2022-08-23T19:31:57.012Z,1.17
2022-08-23T19:34:28.160Z,0.90
2022-08-23T19:37:01.048Z,1.17
2022-08-23T19:39:33.231Z,0.97
2022-08-23T19:42:06.460Z,1.10
2022-08-23T19:44:40.092Z,1.17
2022-08-23T19:47:13.407Z,1.27
2022-08-23T19:49:51.211Z,1.10
2022-08-23T19:52:21.949Z,1.30
2022-08-23T19:54:52.704Z,1.27
2022-08-23T19:57:23.412Z,1.10
2022-08-23T19:59:54.130Z,1.27
2022-08-23T20:02:26.540Z,1.47
2022-08-23T20:04:57.553Z,1.23
2022-08-23T20:07:28.242Z,1.30
2022-08-23T20:10:01.933Z,1.30
2022-08-23T20:12:33.952Z,0.90
2022-08-23T20:15:05.708Z,1.40
2022-08-23T20:17:38.962Z,1.50
2022-08-23T20:20:11.956Z,1.30
2022-08-23T20:22:59.899Z,1.20
2022-08-23T20:25:31.484Z,1.10
2022-08-23T20:28:05.829Z,1.23
2022-08-23T20:30:38.285Z,1.33
2022-08-23T20:33:10.841Z,1.30
2022-08-23T20:35:41.617Z,1.40
2022-08-23T20:38:22.367Z,1.20
2022-08-23T20:41:03.335Z,1.27
2022-08-23T20:43:35.217Z,1.50
2022-08-23T20:46:06.359Z,1.50
2022-08-23T20:48:38.756Z,1.40
2022-08-23T20:51:16.379Z,1.70
2022-08-23T20:53:47.498Z,1.23
2022-08-23T20:56:18.459Z,1.37
2022-08-23T20:58:52.036Z,1.40
2022-08-23T21:01:23.479Z,1.50
2022-08-23T21:03:55.876Z,1.53
2022-08-23T21:06:28.991Z,1.57
2022-08-23T21:09:02.172Z,1.50
2022-08-23T21:11:33.076Z,1.90
2022-08-23T21:14:04.800Z,1.80
2022-08-23T21:16:35.625Z,1.60
2022-08-23T21:19:08.604Z,1.40
2022-08-23T21:21:41.372Z,1.40
2022-08-23T21:24:14.168Z,1.57
2022-08-23T21:26:45.348Z,1.67
2022-08-23T21:29:16.114Z,1.80
2022-08-23T21:31:48.182Z,1.67
2022-08-23T21:34:20.836Z,2.10
2022-08-23T21:36:53.114Z,1.70
2022-08-23T21:39:23.838Z,1.50
2022-08-23T21:41:56.542Z,1.80
2022-08-23T21:44:27.369Z,1.57
2022-08-23T21:46:58.072Z,1.47
2022-08-23T21:49:30.432Z,1.73
2022-08-23T21:52:01.153Z,1.47
2022-08-23T21:54:31.880Z,1.53
2022-08-23T21:57:02.649Z,1.60
2022-08-23T21:59:33.437Z,1.70
2022-08-23T22:02:04.409Z,1.60
2022-08-23T22:04:36.870Z,1.50
2022-08-23T22:07:07.840Z,1.60
2022-08-23T22:09:38.583Z,1.60
2022-08-23T22:12:10.420Z,1.40
2022-08-23T22:14:41.193Z,1.87
2022-08-23T22:17:11.912Z,1.47
2022-08-23T22:19:44.541Z,1.67
2022-08-23T22:22:15.820Z,1.73
2022-08-23T22:24:46.623Z,1.73
2022-08-23T22:27:17.346Z,1.60
2022-08-23T22:29:48.782Z,2.00
2022-08-23T22:32:19.564Z,1.90
2022-08-23T22:34:51.989Z,1.50
2022-08-23T22:37:22.713Z,1.30
2022-08-23T22:39:53.467Z,1.60
2022-08-23T22:42:24.329Z,1.50
2022-08-23T22:44:57.803Z,1.80
2022-08-23T22:47:28.784Z,1.53
2022-08-23T22:50:01.254Z,1.77
2022-08-23T22:52:32.108Z,1.70
2022-08-23T22:55:02.817Z,1.63
2022-08-23T22:57:33.644Z,1.83
2022-08-23T23:00:10.883Z,1.37
2022-08-23T23:02:42.107Z,1.67
2022-08-23T23:05:14.684Z,2.10
2022-08-23T23:08:02.207Z,1.90
2022-08-23T23:10:33.494Z,1.80
2022-08-23T23:13:05.615Z,1.60
2022-08-23T23:15:36.310Z,1.70
2022-08-23T23:18:07.153Z,2.00
2022-08-23T23:20:40.071Z,2.13
2022-08-23T23:23:13.169Z,1.53
2022-08-23T23:25:44.462Z,1.90
2022-08-23T23:28:16.994Z,1.70
2022-08-23T23:30:49.320Z,1.60
2022-08-23T23:33:21.413Z,2.10
2022-08-23T23:35:54.201Z,1.70
2022-08-23T23:38:25.138Z,1.50
2022-08-23T23:40:55.831Z,2.03
2022-08-23T23:43:26.548Z,2.23
2022-08-23T23:45:58.390Z,1.90
2022-08-23T23:48:29.145Z,1.57
2022-08-23T23:51:01.554Z,1.77
2022-08-23T23:53:32.313Z,1.97
2022-08-23T23:56:04.111Z,1.90
2022-08-23T23:58:35.382Z,1.90
